sensor_id;sensor_type;location;lat;lon;timestamp;P1;durP1;ratioP1;P2;durP2;ratioP2
15629;SDS011;7914;50.842;0.166;2024-02-26T00:02:20;1.27;;;0.50;;
15629;SDS011;7914;50.842;0.166;2024-02-26T00:04:46;6.18;;;1.10;;
15629;SDS011;7914;50.842;0.166;2024-02-26T00:07:13;5.28;;;1.27;;
15629;SDS011;7914;50.842;0.166;2024-02-26T00:09:39;1.45;;;0.70;;
15629;SDS011;7914;50.842;0.166;2024-02-26T00:12:05;2.30;;;0.93;;
15629;SDS011;7914;50.842;0.166;2024-02-26T00:14:31;2.53;;;1.17;;
15629;SDS011;7914;50.842;0.166;2024-02-26T00:16:56;4.63;;;0.90;;
15629;SDS011;7914;50.842;0.166;2024-02-26T00:19:22;3.85;;;0.95;;
15629;SDS011;7914;50.842;0.166;2024-02-26T00:21:48;1.90;;;0.60;;
15629;SDS011;7914;50.842;0.166;2024-02-26T00:24:14;1.88;;;0.70;;
15629;SDS011;7914;50.842;0.166;2024-02-26T00:26:39;1.67;;;0.60;;
15629;SDS011;7914;50.842;0.166;2024-02-26T00:29:05;4.03;;;0.82;;
15629;SDS011;7914;50.842;0.166;2024-02-26T00:31:31;4.28;;;0.98;;
15629;SDS011;7914;50.842;0.166;2024-02-26T00:33:56;2.03;;;0.55;;
15629;SDS011;7914;50.842;0.166;2024-02-26T00:36:24;1.60;;;0.73;;
15629;SDS011;7914;50.842;0.166;2024-02-26T00:38:50;5.07;;;1.17;;
15629;SDS011;7914;50.842;0.166;2024-02-26T00:41:19;2.83;;;0.98;;
15629;SDS011;7914;50.842;0.166;2024-02-26T00:43:46;3.65;;;1.15;;
15629;SDS011;7914;50.842;0.166;2024-02-26T00:46:12;3.42;;;0.95;;
15629;SDS011;7914;50.842;0.166;2024-02-26T00:48:37;3.65;;;0.68;;
15629;SDS011;7914;50.842;0.166;2024-02-26T00:51:03;2.40;;;0.73;;
15629;SDS011;7914;50.842;0.166;2024-02-26T00:53:33;2.83;;;0.85;;
15629;SDS011;7914;50.842;0.166;2024-02-26T00:55:59;5.32;;;1.20;;
15629;SDS011;7914;50.842;0.166;2024-02-26T00:58:25;1.92;;;0.80;;
15629;SDS011;7914;50.842;0.166;2024-02-26T01:00:51;5.90;;;1.05;;
15629;SDS011;7914;50.842;0.166;2024-02-26T01:03:17;1.48;;;0.82;;
15629;SDS011;7914;50.842;0.166;2024-02-26T01:05:44;3.25;;;1.00;;
15629;SDS011;7914;50.842;0.166;2024-02-26T01:08:10;5.38;;;1.10;;
15629;SDS011;7914;50.842;0.166;2024-02-26T01:10:36;2.63;;;0.82;;
15629;SDS011;7914;50.842;0.166;2024-02-26T01:13:01;4.47;;;1.35;;
15629;SDS011;7914;50.842;0.166;2024-02-26T01:15:27;6.80;;;1.30;;
15629;SDS011;7914;50.842;0.166;2024-02-26T01:17:53;4.13;;;1.50;;
15629;SDS011;7914;50.842;0.166;2024-02-26T01:20:19;3.33;;;1.27;;
15629;SDS011;7914;50.842;0.166;2024-02-26T01:22:45;3.72;;;1.52;;
15629;SDS011;7914;50.842;0.166;2024-02-26T01:25:11;6.25;;;1.80;;
15629;SDS011;7914;50.842;0.166;2024-02-26T01:27:38;9.65;;;2.60;;
15629;SDS011;7914;50.842;0.166;2024-02-26T01:30:06;6.05;;;2.33;;
15629;SDS011;7914;50.842;0.166;2024-02-26T01:32:32;4.40;;;1.35;;
15629;SDS011;7914;50.842;0.166;2024-02-26T01:34:58;4.60;;;2.22;;
15629;SDS011;7914;50.842;0.166;2024-02-26T01:37:24;5.45;;;1.80;;
15629;SDS011;7914;50.842;0.166;2024-02-26T01:39:49;5.32;;;1.65;;
15629;SDS011;7914;50.842;0.166;2024-02-26T01:42:17;4.80;;;1.85;;
15629;SDS011;7914;50.842;0.166;2024-02-26T01:44:43;3.42;;;1.73;;
15629;SDS011;7914;50.842;0.166;2024-02-26T01:47:10;7.55;;;2.03;;
15629;SDS011;7914;50.842;0.166;2024-02-26T01:49:37;8.88;;;2.13;;
15629;SDS011;7914;50.842;0.166;2024-02-26T01:52:04;7.95;;;2.33;;
15629;SDS011;7914;50.842;0.166;2024-02-26T01:54:32;10.77;;;2.80;;
15629;SDS011;7914;50.842;0.166;2024-02-26T01:57:00;8.13;;;2.88;;
15629;SDS011;7914;50.842;0.166;2024-02-26T01:59:27;7.57;;;3.13;;
15629;SDS011;7914;50.842;0.166;2024-02-26T02:01:54;6.95;;;2.40;;
15629;SDS011;7914;50.842;0.166;2024-02-26T02:04:23;6.57;;;2.45;;
15629;SDS011;7914;50.842;0.166;2024-02-26T02:06:49;5.97;;;2.50;;
15629;SDS011;7914;50.842;0.166;2024-02-26T02:09:17;7.68;;;2.45;;
15629;SDS011;7914;50.842;0.166;2024-02-26T02:11:43;6.13;;;2.80;;
15629;SDS011;7914;50.842;0.166;2024-02-26T02:14:09;9.05;;;2.50;;
15629;SDS011;7914;50.842;0.166;2024-02-26T02:16:35;10.35;;;3.25;;
15629;SDS011;7914;50.842;0.166;2024-02-26T02:19:01;8.23;;;2.10;;
15629;SDS011;7914;50.842;0.166;2024-02-26T02:21:27;10.07;;;2.75;;
15629;SDS011;7914;50.842;0.166;2024-02-26T02:23:52;9.30;;;2.70;;
15629;SDS011;7914;50.842;0.166;2024-02-26T02:26:18;0.00;;;0.00;;
15629;SDS011;7914;50.842;0.166;2024-02-26T02:28:44;0.00;;;0.00;;
15629;SDS011;7914;50.842;0.166;2024-02-26T02:31:11;0.80;;;0.80;;
15629;SDS011;7914;50.842;0.166;2024-02-26T02:33:37;0.00;;;0.00;;
15629;SDS011;7914;50.842;0.166;2024-02-26T02:36:03;56.53;;;2.80;;
15629;SDS011;7914;50.842;0.166;2024-02-26T02:38:30;0.20;;;0.20;;
15629;SDS011;7914;50.842;0.166;2024-02-26T02:40:59;0.05;;;0.05;;
15629;SDS011;7914;50.842;0.166;2024-02-26T02:43:25;0.10;;;0.10;;
15629;SDS011;7914;50.842;0.166;2024-02-26T02:45:51;0.35;;;0.35;;
15629;SDS011;7914;50.842;0.166;2024-02-26T02:48:16;0.15;;;0.15;;
15629;SDS011;7914;50.842;0.166;2024-02-26T02:50:42;1.85;;;0.95;;
15629;SDS011;7914;50.842;0.166;2024-02-26T02:53:08;0.00;;;0.00;;
15629;SDS011;7914;50.842;0.166;2024-02-26T02:55:35;0.05;;;0.05;;
15629;SDS011;7914;50.842;0.166;2024-02-26T02:58:01;0.00;;;0.00;;
15629;SDS011;7914;50.842;0.166;2024-02-26T03:00:26;0.10;;;0.10;;
15629;SDS011;7914;50.842;0.166;2024-02-26T03:02:52;0.25;;;0.25;;
15629;SDS011;7914;50.842;0.166;2024-02-26T03:05:18;0.63;;;0.63;;
15629;SDS011;7914;50.842;0.166;2024-02-26T03:07:44;0.05;;;0.00;;
15629;SDS011;7914;50.842;0.166;2024-02-26T03:10:09;0.00;;;0.00;;
15629;SDS011;7914;50.842;0.166;2024-02-26T03:12:39;0.00;;;0.00;;
15629;SDS011;7914;50.842;0.166;2024-02-26T03:15:04;0.13;;;0.13;;
15629;SDS011;7914;50.842;0.166;2024-02-26T03:17:30;0.00;;;0.00;;
15629;SDS011;7914;50.842;0.166;2024-02-26T03:19:56;0.00;;;0.00;;
15629;SDS011;7914;50.842;0.166;2024-02-26T03:22:22;0.10;;;0.10;;
15629;SDS011;7914;50.842;0.166;2024-02-26T03:24:48;0.10;;;0.10;;
15629;SDS011;7914;50.842;0.166;2024-02-26T03:27:14;0.10;;;0.10;;
15629;SDS011;7914;50.842;0.166;2024-02-26T03:29:40;0.28;;;0.28;;
15629;SDS011;7914;50.842;0.166;2024-02-26T03:32:06;0.10;;;0.10;;
15629;SDS011;7914;50.842;0.166;2024-02-26T03:34:32;0.00;;;0.00;;
15629;SDS011;7914;50.842;0.166;2024-02-26T03:37:04;0.17;;;0.17;;
15629;SDS011;7914;50.842;0.166;2024-02-26T03:39:30;0.20;;;0.17;;
15629;SDS011;7914;50.842;0.166;2024-02-26T03:41:56;0.10;;;0.10;;
15629;SDS011;7914;50.842;0.166;2024-02-26T03:44:21;0.10;;;0.10;;
15629;SDS011;7914;50.842;0.166;2024-02-26T03:46:47;0.00;;;0.00;;
15629;SDS011;7914;50.842;0.166;2024-02-26T03:49:13;0.00;;;0.00;;
15629;SDS011;7914;50.842;0.166;2024-02-26T03:51:39;0.50;;;0.50;;
15629;SDS011;7914;50.842;0.166;2024-02-26T03:54:04;0.20;;;0.20;;
15629;SDS011;7914;50.842;0.166;2024-02-26T03:56:30;0.10;;;0.10;;
15629;SDS011;7914;50.842;0.166;2024-02-26T03:58:56;0.10;;;0.10;;
15629;SDS011;7914;50.842;0.166;2024-02-26T04:01:24;0.10;;;0.10;;
15629;SDS011;7914;50.842;0.166;2024-02-26T04:03:50;0.00;;;0.00;;
15629;SDS011;7914;50.842;0.166;2024-02-26T04:06:18;0.00;;;0.00;;
15629;SDS011;7914;50.842;0.166;2024-02-26T04:08:46;0.00;;;0.00;;
15629;SDS011;7914;50.842;0.166;2024-02-26T04:11:11;0.32;;;0.32;;
15629;SDS011;7914;50.842;0.166;2024-02-26T04:13:38;0.20;;;0.20;;
15629;SDS011;7914;50.842;0.166;2024-02-26T04:16:07;0.00;;;0.00;;
15629;SDS011;7914;50.842;0.166;2024-02-26T04:18:32;0.10;;;0.10;;
15629;SDS011;7914;50.842;0.166;2024-02-26T04:20:58;0.10;;;0.10;;
15629;SDS011;7914;50.842;0.166;2024-02-26T04:23:24;0.10;;;0.10;;
15629;SDS011;7914;50.842;0.166;2024-02-26T04:25:50;0.00;;;0.00;;
15629;SDS011;7914;50.842;0.166;2024-02-26T04:28:18;0.00;;;0.00;;
15629;SDS011;7914;50.842;0.166;2024-02-26T04:30:46;4.00;;;0.68;;
15629;SDS011;7914;50.842;0.166;2024-02-26T04:33:13;0.00;;;0.00;;
15629;SDS011;7914;50.842;0.166;2024-02-26T04:35:39;0.10;;;0.10;;
15629;SDS011;7914;50.842;0.166;2024-02-26T04:38:04;0.10;;;0.10;;
15629;SDS011;7914;50.842;0.166;2024-02-26T04:40:30;0.00;;;0.00;;
15629;SDS011;7914;50.842;0.166;2024-02-26T04:42:56;0.15;;;0.15;;
15629;SDS011;7914;50.842;0.166;2024-02-26T04:45:22;0.10;;;0.10;;
15629;SDS011;7914;50.842;0.166;2024-02-26T04:47:48;0.32;;;0.32;;
15629;SDS011;7914;50.842;0.166;2024-02-26T04:50:13;0.10;;;0.10;;
15629;SDS011;7914;50.842;0.166;2024-02-26T04:52:39;0.10;;;0.10;;
15629;SDS011;7914;50.842;0.166;2024-02-26T04:55:05;0.00;;;0.00;;
15629;SDS011;7914;50.842;0.166;2024-02-26T04:57:31;0.52;;;0.52;;
15629;SDS011;7914;50.842;0.166;2024-02-26T04:59:57;0.40;;;0.40;;
15629;SDS011;7914;50.842;0.166;2024-02-26T05:02:23;0.17;;;0.17;;
15629;SDS011;7914;50.842;0.166;2024-02-26T05:04:49;0.22;;;0.22;;
15629;SDS011;7914;50.842;0.166;2024-02-26T05:07:15;1.73;;;1.55;;
15629;SDS011;7914;50.842;0.166;2024-02-26T05:09:42;0.43;;;0.43;;
15629;SDS011;7914;50.842;0.166;2024-02-26T05:12:09;0.00;;;0.00;;
15629;SDS011;7914;50.842;0.166;2024-02-26T05:14:35;0.10;;;0.10;;
15629;SDS011;7914;50.842;0.166;2024-02-26T05:17:00;0.43;;;0.43;;
15629;SDS011;7914;50.842;0.166;2024-02-26T05:19:26;0.10;;;0.10;;
15629;SDS011;7914;50.842;0.166;2024-02-26T05:21:52;0.00;;;0.00;;
15629;SDS011;7914;50.842;0.166;2024-02-26T05:24:18;0.00;;;0.00;;
15629;SDS011;7914;50.842;0.166;2024-02-26T05:26:47;0.03;;;0.03;;
15629;SDS011;7914;50.842;0.166;2024-02-26T05:29:13;0.00;;;0.00;;
15629;SDS011;7914;50.842;0.166;2024-02-26T05:31:39;1.27;;;1.00;;
15629;SDS011;7914;50.842;0.166;2024-02-26T05:34:07;0.20;;;0.20;;
15629;SDS011;7914;50.842;0.166;2024-02-26T05:36:32;0.00;;;0.00;;
15629;SDS011;7914;50.842;0.166;2024-02-26T05:39:01;0.20;;;0.20;;
15629;SDS011;7914;50.842;0.166;2024-02-26T05:41:28;0.00;;;0.00;;
15629;SDS011;7914;50.842;0.166;2024-02-26T05:43:54;0.05;;;0.05;;
15629;SDS011;7914;50.842;0.166;2024-02-26T05:46:21;0.20;;;0.20;;
15629;SDS011;7914;50.842;0.166;2024-02-26T05:48:48;0.00;;;0.00;;
15629;SDS011;7914;50.842;0.166;2024-02-26T05:51:15;0.20;;;0.20;;
15629;SDS011;7914;50.842;0.166;2024-02-26T05:53:41;0.10;;;0.10;;
15629;SDS011;7914;50.842;0.166;2024-02-26T05:56:07;0.00;;;0.00;;
15629;SDS011;7914;50.842;0.166;2024-02-26T05:58:33;0.10;;;0.10;;
15629;SDS011;7914;50.842;0.166;2024-02-26T06:00:59;0.03;;;0.03;;
15629;SDS011;7914;50.842;0.166;2024-02-26T06:03:25;0.00;;;0.00;;
15629;SDS011;7914;50.842;0.166;2024-02-26T06:05:51;0.00;;;0.00;;
15629;SDS011;7914;50.842;0.166;2024-02-26T06:08:17;0.00;;;0.00;;
15629;SDS011;7914;50.842;0.166;2024-02-26T06:10:43;0.00;;;0.00;;
15629;SDS011;7914;50.842;0.166;2024-02-26T06:13:09;0.10;;;0.10;;
15629;SDS011;7914;50.842;0.166;2024-02-26T06:15:35;0.05;;;0.05;;
15629;SDS011;7914;50.842;0.166;2024-02-26T06:18:01;0.70;;;0.70;;
15629;SDS011;7914;50.842;0.166;2024-02-26T06:20:27;0.32;;;0.32;;
15629;SDS011;7914;50.842;0.166;2024-02-26T06:22:52;0.10;;;0.10;;
15629;SDS011;7914;50.842;0.166;2024-02-26T06:25:18;0.00;;;0.00;;
15629;SDS011;7914;50.842;0.166;2024-02-26T06:27:44;0.00;;;0.00;;
15629;SDS011;7914;50.842;0.166;2024-02-26T06:30:10;2.55;;;1.35;;
15629;SDS011;7914;50.842;0.166;2024-02-26T06:32:36;0.08;;;0.08;;
15629;SDS011;7914;50.842;0.166;2024-02-26T06:35:03;1.05;;;1.00;;
15629;SDS011;7914;50.842;0.166;2024-02-26T06:37:34;0.43;;;0.43;;
15629;SDS011;7914;50.842;0.166;2024-02-26T06:40:00;2.70;;;0.98;;
15629;SDS011;7914;50.842;0.166;2024-02-26T06:42:29;0.08;;;0.08;;
15629;SDS011;7914;50.842;0.166;2024-02-26T06:44:55;3.83;;;3.53;;
15629;SDS011;7914;50.842;0.166;2024-02-26T06:47:21;0.10;;;0.10;;
15629;SDS011;7914;50.842;0.166;2024-02-26T06:49:47;0.10;;;0.10;;
15629;SDS011;7914;50.842;0.166;2024-02-26T06:52:12;0.10;;;0.10;;
15629;SDS011;7914;50.842;0.166;2024-02-26T06:54:38;0.00;;;0.00;;
15629;SDS011;7914;50.842;0.166;2024-02-26T06:57:04;0.20;;;0.20;;
15629;SDS011;7914;50.842;0.166;2024-02-26T06:59:29;0.03;;;0.03;;
15629;SDS011;7914;50.842;0.166;2024-02-26T07:01:55;0.03;;;0.03;;
15629;SDS011;7914;50.842;0.166;2024-02-26T07:04:21;0.00;;;0.00;;
15629;SDS011;7914;50.842;0.166;2024-02-26T07:06:47;1.10;;;1.10;;
15629;SDS011;7914;50.842;0.166;2024-02-26T07:09:13;0.22;;;0.20;;
15629;SDS011;7914;50.842;0.166;2024-02-26T07:11:39;0.20;;;0.20;;
15629;SDS011;7914;50.842;0.166;2024-02-26T07:14:09;0.00;;;0.00;;
15629;SDS011;7914;50.842;0.166;2024-02-26T07:16:35;0.20;;;0.20;;
15629;SDS011;7914;50.842;0.166;2024-02-26T07:19:01;0.00;;;0.00;;
15629;SDS011;7914;50.842;0.166;2024-02-26T07:21:27;0.10;;;0.10;;
15629;SDS011;7914;50.842;0.166;2024-02-26T07:23:53;0.00;;;0.00;;
15629;SDS011;7914;50.842;0.166;2024-02-26T07:26:19;0.13;;;0.13;;
15629;SDS011;7914;50.842;0.166;2024-02-26T07:28:45;1.08;;;1.08;;
15629;SDS011;7914;50.842;0.166;2024-02-26T07:31:13;0.08;;;0.08;;
15629;SDS011;7914;50.842;0.166;2024-02-26T07:33:39;0.00;;;0.00;;
15629;SDS011;7914;50.842;0.166;2024-02-26T07:36:05;0.00;;;0.00;;
15629;SDS011;7914;50.842;0.166;2024-02-26T07:38:30;0.03;;;0.03;;
15629;SDS011;7914;50.842;0.166;2024-02-26T07:40:56;0.00;;;0.00;;
15629;SDS011;7914;50.842;0.166;2024-02-26T07:43:22;0.10;;;0.10;;
15629;SDS011;7914;50.842;0.166;2024-02-26T07:45:49;0.10;;;0.10;;
15629;SDS011;7914;50.842;0.166;2024-02-26T07:48:14;0.13;;;0.13;;
15629;SDS011;7914;50.842;0.166;2024-02-26T07:50:40;0.00;;;0.00;;
15629;SDS011;7914;50.842;0.166;2024-02-26T07:53:07;0.10;;;0.10;;
15629;SDS011;7914;50.842;0.166;2024-02-26T07:55:33;0.10;;;0.10;;
15629;SDS011;7914;50.842;0.166;2024-02-26T07:57:59;0.35;;;0.35;;
15629;SDS011;7914;50.842;0.166;2024-02-26T08:00:25;0.00;;;0.00;;
15629;SDS011;7914;50.842;0.166;2024-02-26T08:02:51;0.15;;;0.15;;
15629;SDS011;7914;50.842;0.166;2024-02-26T08:05:17;0.10;;;0.10;;
15629;SDS011;7914;50.842;0.166;2024-02-26T08:07:42;0.00;;;0.00;;
15629;SDS011;7914;50.842;0.166;2024-02-26T08:10:08;0.10;;;0.10;;
15629;SDS011;7914;50.842;0.166;2024-02-26T08:12:36;0.30;;;0.30;;
15629;SDS011;7914;50.842;0.166;2024-02-26T08:15:02;0.00;;;0.00;;
15629;SDS011;7914;50.842;0.166;2024-02-26T08:17:28;0.00;;;0.00;;
15629;SDS011;7914;50.842;0.166;2024-02-26T08:19:54;0.10;;;0.10;;
15629;SDS011;7914;50.842;0.166;2024-02-26T08:22:21;0.00;;;0.00;;
15629;SDS011;7914;50.842;0.166;2024-02-26T08:24:47;0.00;;;0.00;;
15629;SDS011;7914;50.842;0.166;2024-02-26T08:27:13;0.20;;;0.20;;
15629;SDS011;7914;50.842;0.166;2024-02-26T08:29:38;0.10;;;0.10;;
15629;SDS011;7914;50.842;0.166;2024-02-26T08:32:05;0.00;;;0.00;;
15629;SDS011;7914;50.842;0.166;2024-02-26T08:34:32;0.00;;;0.00;;
15629;SDS011;7914;50.842;0.166;2024-02-26T08:36:58;0.00;;;0.00;;
15629;SDS011;7914;50.842;0.166;2024-02-26T08:39:23;0.00;;;0.00;;
15629;SDS011;7914;50.842;0.166;2024-02-26T08:41:51;0.00;;;0.00;;
15629;SDS011;7914;50.842;0.166;2024-02-26T08:44:17;0.10;;;0.10;;
15629;SDS011;7914;50.842;0.166;2024-02-26T08:46:42;0.00;;;0.00;;
15629;SDS011;7914;50.842;0.166;2024-02-26T08:49:09;0.32;;;0.32;;
15629;SDS011;7914;50.842;0.166;2024-02-26T08:51:34;0.10;;;0.10;;
15629;SDS011;7914;50.842;0.166;2024-02-26T08:54:00;0.00;;;0.00;;
15629;SDS011;7914;50.842;0.166;2024-02-26T08:56:26;0.10;;;0.10;;
15629;SDS011;7914;50.842;0.166;2024-02-26T08:58:54;0.10;;;0.10;;
15629;SDS011;7914;50.842;0.166;2024-02-26T09:01:22;0.00;;;0.00;;
15629;SDS011;7914;50.842;0.166;2024-02-26T09:03:48;0.03;;;0.03;;
15629;SDS011;7914;50.842;0.166;2024-02-26T09:06:15;0.00;;;0.00;;
15629;SDS011;7914;50.842;0.166;2024-02-26T09:08:41;0.05;;;0.05;;
15629;SDS011;7914;50.842;0.166;2024-02-26T09:11:06;0.10;;;0.10;;
15629;SDS011;7914;50.842;0.166;2024-02-26T09:13:32;0.00;;;0.00;;
15629;SDS011;7914;50.842;0.166;2024-02-26T09:15:58;0.08;;;0.08;;
15629;SDS011;7914;50.842;0.166;2024-02-26T09:18:24;0.00;;;0.00;;
15629;SDS011;7914;50.842;0.166;2024-02-26T09:20:50;0.00;;;0.00;;
15629;SDS011;7914;50.842;0.166;2024-02-26T09:23:16;0.00;;;0.00;;
15629;SDS011;7914;50.842;0.166;2024-02-26T09:25:43;0.20;;;0.20;;
15629;SDS011;7914;50.842;0.166;2024-02-26T09:28:12;0.20;;;0.20;;
15629;SDS011;7914;50.842;0.166;2024-02-26T09:30:38;0.00;;;0.00;;
15629;SDS011;7914;50.842;0.166;2024-02-26T09:33:04;0.10;;;0.10;;
15629;SDS011;7914;50.842;0.166;2024-02-26T09:35:29;0.00;;;0.00;;
15629;SDS011;7914;50.842;0.166;2024-02-26T09:37:55;0.00;;;0.00;;
15629;SDS011;7914;50.842;0.166;2024-02-26T09:40:21;0.00;;;0.00;;
15629;SDS011;7914;50.842;0.166;2024-02-26T09:42:47;7.68;;;1.88;;
15629;SDS011;7914;50.842;0.166;2024-02-26T09:45:21;0.00;;;0.00;;
15629;SDS011;7914;50.842;0.166;2024-02-26T09:47:50;0.03;;;0.03;;
15629;SDS011;7914;50.842;0.166;2024-02-26T09:50:16;0.00;;;0.00;;
15629;SDS011;7914;50.842;0.166;2024-02-26T09:52:43;0.20;;;0.20;;
15629;SDS011;7914;50.842;0.166;2024-02-26T09:55:09;0.20;;;0.10;;
15629;SDS011;7914;50.842;0.166;2024-02-26T09:57:38;0.00;;;0.00;;
15629;SDS011;7914;50.842;0.166;2024-02-26T10:00:10;2.22;;;0.70;;
15629;SDS011;7914;50.842;0.166;2024-02-26T10:02:45;5.00;;;0.88;;
15629;SDS011;7914;50.842;0.166;2024-02-26T10:05:12;4.78;;;1.23;;
15629;SDS011;7914;50.842;0.166;2024-02-26T10:07:43;4.35;;;1.20;;
15629;SDS011;7914;50.842;0.166;2024-02-26T10:10:10;3.50;;;1.10;;
15629;SDS011;7914;50.842;0.166;2024-02-26T10:12:36;3.28;;;1.58;;
15629;SDS011;7914;50.842;0.166;2024-02-26T10:15:01;6.07;;;1.08;;
15629;SDS011;7914;50.842;0.166;2024-02-26T10:17:27;3.13;;;1.20;;
15629;SDS011;7914;50.842;0.166;2024-02-26T10:19:54;4.10;;;0.88;;
15629;SDS011;7914;50.842;0.166;2024-02-26T10:22:21;2.78;;;1.00;;
15629;SDS011;7914;50.842;0.166;2024-02-26T10:24:48;6.55;;;1.30;;
15629;SDS011;7914;50.842;0.166;2024-02-26T10:27:14;4.38;;;0.85;;
15629;SDS011;7914;50.842;0.166;2024-02-26T10:29:40;3.20;;;0.98;;
15629;SDS011;7914;50.842;0.166;2024-02-26T10:32:08;4.43;;;1.17;;
15629;SDS011;7914;50.842;0.166;2024-02-26T10:34:35;6.65;;;1.15;;
15629;SDS011;7914;50.842;0.166;2024-02-26T10:37:03;3.40;;;1.38;;
15629;SDS011;7914;50.842;0.166;2024-02-26T10:39:30;5.22;;;1.40;;
15629;SDS011;7914;50.842;0.166;2024-02-26T10:41:55;7.85;;;1.30;;
15629;SDS011;7914;50.842;0.166;2024-02-26T10:44:21;4.97;;;1.40;;
15629;SDS011;7914;50.842;0.166;2024-02-26T10:46:47;3.88;;;1.27;;
15629;SDS011;7914;50.842;0.166;2024-02-26T10:49:16;4.03;;;1.95;;
15629;SDS011;7914;50.842;0.166;2024-02-26T10:51:45;3.75;;;1.30;;
15629;SDS011;7914;50.842;0.166;2024-02-26T10:56:41;3.15;;;1.30;;
15629;SDS011;7914;50.842;0.166;2024-02-26T10:59:09;2.95;;;0.77;;
15629;SDS011;7914;50.842;0.166;2024-02-26T11:01:38;4.68;;;1.40;;
15629;SDS011;7914;50.842;0.166;2024-02-26T11:04:06;4.65;;;1.05;;
15629;SDS011;7914;50.842;0.166;2024-02-26T11:06:37;4.93;;;1.05;;
15629;SDS011;7914;50.842;0.166;2024-02-26T11:09:03;2.67;;;1.00;;
15629;SDS011;7914;50.842;0.166;2024-02-26T11:11:31;3.35;;;0.63;;
15629;SDS011;7914;50.842;0.166;2024-02-26T11:14:00;3.55;;;0.93;;
15629;SDS011;7914;50.842;0.166;2024-02-26T11:16:28;3.33;;;0.88;;
15629;SDS011;7914;50.842;0.166;2024-02-26T11:18:55;5.47;;;1.17;;
15629;SDS011;7914;50.842;0.166;2024-02-26T11:21:22;3.90;;;1.58;;
15629;SDS011;7914;50.842;0.166;2024-02-26T11:23:53;3.40;;;0.95;;
15629;SDS011;7914;50.842;0.166;2024-02-26T11:26:20;3.70;;;1.10;;
15629;SDS011;7914;50.842;0.166;2024-02-26T11:28:47;2.35;;;0.93;;
15629;SDS011;7914;50.842;0.166;2024-02-26T11:31:14;4.70;;;1.20;;
15629;SDS011;7914;50.842;0.166;2024-02-26T11:33:40;2.28;;;0.65;;
15629;SDS011;7914;50.842;0.166;2024-02-26T11:36:09;5.50;;;1.15;;
15629;SDS011;7914;50.842;0.166;2024-02-26T11:38:36;2.33;;;0.70;;
15629;SDS011;7914;50.842;0.166;2024-02-26T11:41:03;5.85;;;1.20;;
15629;SDS011;7914;50.842;0.166;2024-02-26T11:46:25;2.70;;;0.80;;
15629;SDS011;7914;50.842;0.166;2024-02-26T11:48:59;9.35;;;1.23;;
15629;SDS011;7914;50.842;0.166;2024-02-26T11:51:50;2.78;;;0.47;;
15629;SDS011;7914;50.842;0.166;2024-02-26T11:59:47;2.25;;;0.77;;
15629;SDS011;7914;50.842;0.166;2024-02-26T12:02:36;2.88;;;0.85;;
15629;SDS011;7914;50.842;0.166;2024-02-26T12:05:06;2.65;;;0.90;;
15629;SDS011;7914;50.842;0.166;2024-02-26T12:07:47;2.53;;;0.77;;
15629;SDS011;7914;50.842;0.166;2024-02-26T12:10:23;1.65;;;0.55;;
15629;SDS011;7914;50.842;0.166;2024-02-26T12:15:30;4.50;;;0.75;;
15629;SDS011;7914;50.842;0.166;2024-02-26T12:17:58;1.48;;;0.88;;
15629;SDS011;7914;50.842;0.166;2024-02-26T12:20:26;3.85;;;0.90;;
15629;SDS011;7914;50.842;0.166;2024-02-26T12:22:52;3.20;;;0.82;;
15629;SDS011;7914;50.842;0.166;2024-02-26T12:25:24;4.53;;;0.70;;
15629;SDS011;7914;50.842;0.166;2024-02-26T12:27:54;2.85;;;0.70;;
15629;SDS011;7914;50.842;0.166;2024-02-26T12:30:20;4.20;;;0.88;;
15629;SDS011;7914;50.842;0.166;2024-02-26T12:32:50;2.80;;;0.80;;
15629;SDS011;7914;50.842;0.166;2024-02-26T12:35:17;2.63;;;0.98;;
15629;SDS011;7914;50.842;0.166;2024-02-26T12:37:46;2.35;;;0.73;;
15629;SDS011;7914;50.842;0.166;2024-02-26T12:40:12;2.67;;;0.75;;
15629;SDS011;7914;50.842;0.166;2024-02-26T12:42:38;3.47;;;0.68;;
15629;SDS011;7914;50.842;0.166;2024-02-26T12:45:06;2.58;;;1.58;;
15629;SDS011;7914;50.842;0.166;2024-02-26T12:47:38;4.47;;;0.82;;
15629;SDS011;7914;50.842;0.166;2024-02-26T12:50:05;1.48;;;0.63;;
15629;SDS011;7914;50.842;0.166;2024-02-26T12:52:32;2.92;;;0.73;;
15629;SDS011;7914;50.842;0.166;2024-02-26T12:54:59;4.30;;;0.90;;
15629;SDS011;7914;50.842;0.166;2024-02-26T12:57:27;3.75;;;1.02;;
15629;SDS011;7914;50.842;0.166;2024-02-26T12:59:55;1.33;;;0.50;;
15629;SDS011;7914;50.842;0.166;2024-02-26T13:02:21;3.70;;;1.25;;
15629;SDS011;7914;50.842;0.166;2024-02-26T13:04:47;5.53;;;1.00;;
15629;SDS011;7914;50.842;0.166;2024-02-26T13:07:13;3.88;;;0.70;;
15629;SDS011;7914;50.842;0.166;2024-02-26T13:09:42;2.05;;;0.70;;
15629;SDS011;7914;50.842;0.166;2024-02-26T13:14:34;1.58;;;0.47;;
15629;SDS011;7914;50.842;0.166;2024-02-26T13:17:00;1.88;;;0.50;;
15629;SDS011;7914;50.842;0.166;2024-02-26T13:19:27;4.50;;;0.77;;
15629;SDS011;7914;50.842;0.166;2024-02-26T13:21:53;3.05;;;0.63;;
15629;SDS011;7914;50.842;0.166;2024-02-26T13:24:19;4.60;;;0.90;;
15629;SDS011;7914;50.842;0.166;2024-02-26T13:26:45;6.57;;;1.40;;
15629;SDS011;7914;50.842;0.166;2024-02-26T13:29:18;11.52;;;2.42;;
15629;SDS011;7914;50.842;0.166;2024-02-26T13:31:44;7.40;;;1.10;;
15629;SDS011;7914;50.842;0.166;2024-02-26T13:34:10;3.35;;;1.10;;
15629;SDS011;7914;50.842;0.166;2024-02-26T13:36:35;2.88;;;0.80;;
15629;SDS011;7914;50.842;0.166;2024-02-26T13:39:01;2.25;;;0.50;;
15629;SDS011;7914;50.842;0.166;2024-02-26T13:41:30;6.10;;;1.52;;
15629;SDS011;7914;50.842;0.166;2024-02-26T13:43:55;4.28;;;0.88;;
15629;SDS011;7914;50.842;0.166;2024-02-26T13:46:23;2.13;;;0.93;;
15629;SDS011;7914;50.842;0.166;2024-02-26T13:48:48;1.13;;;0.47;;
15629;SDS011;7914;50.842;0.166;2024-02-26T13:51:14;1.52;;;0.50;;
15629;SDS011;7914;50.842;0.166;2024-02-26T13:53:42;1.25;;;0.52;;
15629;SDS011;7914;50.842;0.166;2024-02-26T13:56:08;2.88;;;1.10;;
15629;SDS011;7914;50.842;0.166;2024-02-26T13:58:35;3.22;;;0.88;;
15629;SDS011;7914;50.842;0.166;2024-02-26T14:01:04;2.33;;;0.52;;
15629;SDS011;7914;50.842;0.166;2024-02-26T14:03:31;5.50;;;1.23;;
15629;SDS011;7914;50.842;0.166;2024-02-26T14:05:57;1.75;;;0.60;;
15629;SDS011;7914;50.842;0.166;2024-02-26T14:08:23;2.55;;;0.65;;
15629;SDS011;7914;50.842;0.166;2024-02-26T14:10:49;5.93;;;1.10;;
15629;SDS011;7914;50.842;0.166;2024-02-26T14:13:15;1.75;;;0.68;;
15629;SDS011;7914;50.842;0.166;2024-02-26T14:15:40;2.38;;;0.70;;
15629;SDS011;7914;50.842;0.166;2024-02-26T14:18:06;3.67;;;0.80;;
15629;SDS011;7914;50.842;0.166;2024-02-26T14:20:32;1.20;;;0.45;;
15629;SDS011;7914;50.842;0.166;2024-02-26T14:22:58;4.75;;;1.02;;
15629;SDS011;7914;50.842;0.166;2024-02-26T14:25:25;2.90;;;0.73;;
15629;SDS011;7914;50.842;0.166;2024-02-26T14:27:50;2.78;;;0.80;;
15629;SDS011;7914;50.842;0.166;2024-02-26T14:30:16;5.43;;;0.93;;
15629;SDS011;7914;50.842;0.166;2024-02-26T14:32:42;4.07;;;1.02;;
15629;SDS011;7914;50.842;0.166;2024-02-26T14:35:09;3.63;;;0.93;;
15629;SDS011;7914;50.842;0.166;2024-02-26T14:37:35;4.47;;;1.02;;
15629;SDS011;7914;50.842;0.166;2024-02-26T14:40:01;1.33;;;0.70;;
15629;SDS011;7914;50.842;0.166;2024-02-26T14:42:28;2.97;;;0.82;;
15629;SDS011;7914;50.842;0.166;2024-02-26T14:44:54;8.40;;;0.85;;
15629;SDS011;7914;50.842;0.166;2024-02-26T14:47:20;6.38;;;1.25;;
15629;SDS011;7914;50.842;0.166;2024-02-26T14:49:46;1.50;;;0.52;;
15629;SDS011;7914;50.842;0.166;2024-02-26T14:52:13;1.95;;;0.90;;
15629;SDS011;7914;50.842;0.166;2024-02-26T14:54:39;5.82;;;0.77;;
15629;SDS011;7914;50.842;0.166;2024-02-26T14:57:05;1.90;;;0.68;;
15629;SDS011;7914;50.842;0.166;2024-02-26T14:59:32;6.28;;;0.82;;
15629;SDS011;7914;50.842;0.166;2024-02-26T15:01:58;5.63;;;1.02;;
15629;SDS011;7914;50.842;0.166;2024-02-26T15:04:27;3.13;;;0.63;;
15629;SDS011;7914;50.842;0.166;2024-02-26T15:06:52;3.45;;;1.00;;
15629;SDS011;7914;50.842;0.166;2024-02-26T15:09:18;3.40;;;0.90;;
15629;SDS011;7914;50.842;0.166;2024-02-26T15:11:44;3.53;;;0.68;;
15629;SDS011;7914;50.842;0.166;2024-02-26T15:14:10;2.67;;;0.63;;